createdAt,value
2023-04-10T00:03:21.298Z,4.92
2023-04-10T00:08:24.411Z,5.02
2023-04-10T00:13:26.710Z,5.07
2023-04-10T00:18:28.806Z,5.09
2023-04-10T00:23:35.160Z,5.07
2023-04-10T00:28:40.328Z,5.03
2023-04-10T00:33:42.392Z,4.93
2023-04-10T00:38:44.580Z,4.96
2023-04-10T00:43:46.764Z,4.84
2023-04-10T00:48:49.059Z,4.83
2023-04-10T00:53:52.676Z,4.93
2023-04-10T00:58:55.041Z,4.88
2023-04-10T01:03:57.860Z,5.00
2023-04-10T01:09:39.624Z,4.84
2023-04-10T01:14:53.076Z,4.91
2023-04-10T01:20:10.313Z,4.91
2023-04-10T01:25:40.456Z,5.03
2023-04-10T01:30:44.343Z,5.00
2023-04-10T01:35:50.871Z,4.86
2023-04-10T01:40:54.876Z,4.85
2023-04-10T01:45:58.665Z,4.79
2023-04-10T01:51:04.810Z,4.75
2023-04-10T01:56:08.762Z,4.62
2023-04-10T02:01:22.370Z,4.56
2023-04-10T02:07:01.839Z,4.45
2023-04-10T02:12:07.138Z,4.44
2023-04-10T02:17:12.877Z,4.22
2023-04-10T02:22:16.954Z,4.16
2023-04-10T02:27:29.139Z,4.11
2023-04-10T02:32:33.296Z,4.08
2023-04-10T02:37:36.181Z,4.07
2023-04-10T02:42:38.258Z,4.14
2023-04-10T02:47:40.370Z,4.14
2023-04-10T02:52:42.459Z,3.98
2023-04-10T02:57:44.535Z,4.10
2023-04-10T03:02:46.801Z,4.14
2023-04-10T03:07:49.066Z,4.03
2023-04-10T03:12:51.199Z,3.80
2023-04-10T03:17:53.484Z,3.83
2023-04-10T03:22:55.693Z,3.74
2023-04-10T03:27:58.131Z,3.80
2023-04-10T03:33:00.190Z,3.76
2023-04-10T03:38:02.321Z,3.58
2023-04-10T03:43:04.421Z,3.65
2023-04-10T03:48:06.622Z,3.63
2023-04-10T03:53:08.850Z,3.58
2023-04-10T03:58:11.030Z,3.57
2023-04-10T04:03:13.426Z,3.51
2023-04-10T04:08:15.693Z,3.45
2023-04-10T04:13:17.922Z,3.28
2023-04-10T04:18:19.986Z,3.27
2023-04-10T04:23:22.146Z,3.25
2023-04-10T04:28:24.252Z,3.38
2023-04-10T04:33:26.328Z,3.24
2023-04-10T04:38:28.391Z,3.34
2023-04-10T04:43:30.588Z,3.33
2023-04-10T04:48:32.680Z,3.32
2023-04-10T04:53:34.803Z,3.35
2023-04-10T04:58:36.957Z,3.38
2023-04-10T05:03:39.088Z,3.45
2023-04-10T05:08:41.223Z,3.59
2023-04-10T05:13:43.256Z,3.57
2023-04-10T05:18:46.711Z,3.54
2023-04-10T05:23:48.866Z,3.73
2023-04-10T05:28:51.099Z,3.72
2023-04-10T05:33:53.177Z,3.85
2023-04-10T05:38:56.022Z,4.00
2023-04-10T05:43:58.316Z,4.11
2023-04-10T05:49:00.571Z,4.23
2023-04-10T05:54:02.637Z,4.34
2023-04-10T05:59:04.814Z,4.52
2023-04-10T06:04:06.996Z,4.82
2023-04-10T06:09:09.549Z,5.05
2023-04-10T06:14:11.611Z,5.25
2023-04-10T06:19:13.712Z,5.45
2023-04-10T06:24:15.887Z,5.63
2023-04-10T06:29:18.007Z,5.85
2023-04-10T06:34:20.489Z,6.07
2023-04-10T06:39:22.549Z,6.29
2023-04-10T06:44:24.657Z,6.50
2023-04-10T06:49:26.706Z,6.74
2023-04-10T06:54:28.744Z,6.91
2023-04-10T06:59:31.841Z,7.16
2023-04-10T07:04:33.932Z,7.53
2023-04-10T07:09:36.246Z,7.82
2023-04-10T07:14:38.308Z,8.09
2023-04-10T07:19:40.344Z,8.35
2023-04-10T07:24:42.672Z,8.52
2023-04-10T07:29:45.054Z,8.78
2023-04-10T07:34:47.392Z,9.09
2023-04-10T07:39:49.493Z,9.31
2023-04-10T07:44:51.662Z,9.53
2023-04-10T07:49:53.842Z,9.87
2023-04-10T07:54:56.006Z,10.11
2023-04-10T07:59:58.258Z,10.44
2023-04-10T08:05:00.500Z,10.86
2023-04-10T08:10:03.325Z,11.08
2023-04-10T08:15:06.354Z,11.29
2023-04-10T08:20:09.545Z,11.54
2023-04-10T08:25:11.729Z,11.93
2023-04-10T08:30:14.033Z,12.15
2023-04-10T08:35:16.118Z,12.49
2023-04-10T08:40:18.237Z,12.78
2023-04-10T08:45:21.507Z,13.10
2023-04-10T08:50:23.765Z,13.44
2023-04-10T08:55:26.774Z,13.77
2023-04-10T09:00:29.437Z,13.93
2023-04-10T09:05:31.936Z,14.29
2023-04-10T09:10:34.071Z,14.45
2023-04-10T09:15:55.569Z,14.77
2023-04-10T09:21:06.903Z,15.20
2023-04-10T09:26:26.345Z,15.57
2023-04-10T09:31:36.241Z,16.00
2023-04-10T09:36:38.844Z,16.21
2023-04-10T09:42:07.361Z,16.47
2023-04-10T09:47:15.459Z,16.96
2023-04-10T09:52:18.549Z,17.29
2023-04-10T09:57:22.673Z,17.41
2023-04-10T10:02:28.837Z,17.20
2023-04-10T10:07:31.661Z,17.50
2023-04-10T10:12:57.264Z,17.34
2023-04-10T10:18:11.667Z,16.85
2023-04-10T10:23:15.721Z,16.54
2023-04-10T10:28:19.036Z,16.16
2023-04-10T10:33:22.968Z,15.80
2023-04-10T10:38:25.058Z,15.70
2023-04-10T10:43:38.555Z,15.55
2023-04-10T10:48:40.644Z,15.41
2023-04-10T10:53:44.645Z,15.34
2023-04-10T10:58:48.263Z,15.22
2023-04-10T11:03:50.940Z,15.07
2023-04-10T11:08:53.915Z,15.10
2023-04-10T11:13:58.833Z,14.94
2023-04-10T11:19:13.951Z,14.73
2023-04-10T11:24:17.718Z,14.70
2023-04-10T11:29:29.066Z,14.79
2023-04-10T11:34:32.476Z,14.74
2023-04-10T11:39:34.520Z,14.71
2023-04-10T11:44:36.763Z,14.80
2023-04-10T11:49:39.170Z,14.77
2023-04-10T11:54:48.736Z,14.98
2023-04-10T11:59:51.611Z,14.91
2023-04-10T12:04:59.661Z,15.00
2023-04-10T12:10:02.071Z,15.31
2023-04-10T12:15:23.503Z,15.31
2023-04-10T12:20:28.697Z,15.40
2023-04-10T12:25:31.098Z,15.24
2023-04-10T12:30:33.167Z,15.02
2023-04-10T12:35:39.116Z,15.20
2023-04-10T12:41:00.939Z,15.79
2023-04-10T12:46:04.532Z,16.03
2023-04-10T12:51:06.898Z,17.51
2023-04-10T12:56:08.984Z,17.70
2023-04-10T13:01:11.247Z,18.21
2023-04-10T13:06:13.304Z,19.31
2023-04-10T13:11:15.549Z,19.79
2023-04-10T13:16:17.650Z,19.13
2023-04-10T13:21:25.984Z,19.67
2023-04-10T13:26:28.126Z,20.35
2023-04-10T13:31:30.442Z,20.79
2023-04-10T13:36:32.686Z,21.26
2023-04-10T13:41:34.952Z,21.63
2023-04-10T13:46:37.033Z,21.98
2023-04-10T13:51:39.104Z,21.97
2023-04-10T13:56:41.356Z,22.17
2023-04-10T14:01:43.487Z,22.67
2023-04-10T14:06:45.693Z,22.72
2023-04-10T14:11:47.823Z,22.81
2023-04-10T14:16:50.514Z,22.93
2023-04-10T14:21:52.570Z,22.89
2023-04-10T14:26:58.212Z,22.57
2023-04-10T14:32:00.545Z,22.70
2023-04-10T14:37:02.746Z,22.56
2023-04-10T14:42:04.823Z,22.67
2023-04-10T14:47:07.997Z,22.71
2023-04-10T14:52:10.308Z,22.66
2023-04-10T14:57:13.141Z,21.74
2023-04-10T15:02:15.488Z,21.88
2023-04-10T15:07:17.656Z,22.03
2023-04-10T15:12:20.966Z,21.88
2023-04-10T15:17:24.315Z,21.67
2023-04-10T15:22:26.993Z,21.09
2023-04-10T15:27:29.112Z,20.16
2023-04-10T15:32:31.237Z,20.11
2023-04-10T15:37:35.569Z,19.52
2023-04-10T15:42:38.070Z,19.33
2023-04-10T15:47:40.215Z,19.28
2023-04-10T15:52:42.367Z,19.16
2023-04-10T15:57:44.497Z,18.79
2023-04-10T16:02:46.990Z,18.15
2023-04-10T16:07:49.287Z,17.96
2023-04-10T16:12:51.404Z,17.79
2023-04-10T16:17:53.558Z,17.90
2023-04-10T16:22:55.784Z,17.66
2023-04-10T16:27:57.843Z,17.47
2023-04-10T16:32:59.973Z,17.01
2023-04-10T16:38:02.627Z,16.55
2023-04-10T16:43:04.725Z,16.33
2023-04-10T16:48:06.897Z,16.03
2023-04-10T16:53:09.176Z,15.92
2023-04-10T16:58:11.352Z,15.75
2023-04-10T17:03:13.522Z,15.50
2023-04-10T17:08:15.698Z,15.33
2023-04-10T17:13:19.817Z,15.20
2023-04-10T17:18:22.955Z,15.07
2023-04-10T17:23:25.386Z,14.98
2023-04-10T17:28:27.812Z,14.89
2023-04-10T17:33:29.936Z,14.74
2023-04-10T17:38:32.567Z,14.66
2023-04-10T17:43:35.241Z,14.60
2023-04-10T17:48:39.053Z,14.58
2023-04-10T17:53:41.398Z,14.51
2023-04-10T17:58:43.510Z,14.46
2023-04-10T18:03:45.753Z,14.35
2023-04-10T18:08:48.052Z,14.29
2023-04-10T18:13:50.256Z,14.30
2023-04-10T18:18:52.586Z,14.26
2023-04-10T18:23:55.133Z,14.02
2023-04-10T18:28:57.800Z,13.97
2023-04-10T18:34:06.972Z,13.88
2023-04-10T18:39:09.649Z,13.84
2023-04-10T18:44:12.147Z,13.66
2023-04-10T18:49:14.415Z,13.75
2023-04-10T18:54:16.590Z,13.64
2023-04-10T18:59:18.670Z,13.52
2023-04-10T19:04:20.950Z,13.36
2023-04-10T19:09:23.102Z,13.23
2023-04-10T19:14:25.260Z,13.21
2023-04-10T19:19:27.366Z,13.05
2023-04-10T19:24:32.421Z,12.82
2023-04-10T19:29:34.544Z,12.63
2023-04-10T19:34:36.671Z,12.63
2023-04-10T19:39:38.757Z,12.43
2023-04-10T19:44:40.934Z,12.32
2023-04-10T19:49:42.997Z,12.30
2023-04-10T19:54:45.237Z,12.25
2023-04-10T19:59:47.381Z,12.24
2023-04-10T20:04:49.653Z,12.16
2023-04-10T20:09:51.798Z,12.07
2023-04-10T20:14:53.847Z,12.03
2023-04-10T20:19:56.160Z,11.87
2023-04-10T20:24:58.240Z,11.90
2023-04-10T20:30:00.348Z,11.75
2023-04-10T20:35:02.481Z,11.67
2023-04-10T20:40:05.096Z,11.44
2023-04-10T20:45:07.613Z,11.08
2023-04-10T20:50:12.241Z,11.08
2023-04-10T20:55:14.961Z,10.86
2023-04-10T21:00:17.246Z,10.47
2023-04-10T21:05:19.440Z,10.47
2023-04-10T21:10:21.695Z,10.21
2023-04-10T21:15:23.777Z,10.11
2023-04-10T21:20:25.841Z,10.05
2023-04-10T21:25:28.005Z,9.78
2023-04-10T21:30:30.106Z,9.76
2023-04-10T21:35:32.208Z,9.77
2023-04-10T21:40:34.599Z,9.51
2023-04-10T21:45:38.346Z,9.58
2023-04-10T21:50:40.740Z,9.44
2023-04-10T21:55:42.912Z,9.22
2023-04-10T22:00:47.244Z,9.23
2023-04-10T22:05:50.530Z,9.13
2023-04-10T22:10:52.788Z,8.91
2023-04-10T22:15:54.872Z,9.02
2023-04-10T22:20:56.956Z,8.78
2023-04-10T22:26:02.156Z,8.87
2023-04-10T22:31:04.327Z,8.78
2023-04-10T22:36:06.783Z,8.54
2023-04-10T22:41:10.808Z,8.63
2023-04-10T22:46:12.894Z,8.55
2023-04-10T22:51:15.301Z,8.38
2023-04-10T22:56:19.216Z,8.33
2023-04-10T23:01:21.382Z,8.32
2023-04-10T23:06:24.149Z,8.10
2023-04-10T23:11:26.339Z,8.03
2023-04-10T23:16:28.603Z,8.06
2023-04-10T23:21:31.656Z,8.06
2023-04-10T23:26:33.775Z,7.88
2023-04-10T23:31:35.831Z,7.99
2023-04-10T23:36:37.913Z,7.89
2023-04-10T23:41:40.001Z,7.72
2023-04-10T23:46:42.657Z,7.64
2023-04-10T23:51:45.487Z,7.62
2023-04-10T23:56:47.547Z,7.61
